createdAt,value
2022-08-19T00:00:03.519Z,98247.62
2022-08-19T00:02:51.508Z,98253.71
2022-08-19T00:05:39.753Z,98251.66
2022-08-19T00:08:27.345Z,98248.36
2022-08-19T00:11:18.601Z,98249.12
2022-08-19T00:14:03.772Z,98245.66
2022-08-19T00:16:53.162Z,98247.00
2022-08-19T00:19:41.779Z,98245.11
2022-08-19T00:22:29.527Z,98230.55
2022-08-19T00:25:17.560Z,98223.54
2022-08-19T00:28:05.847Z,98223.35
2022-08-19T00:30:54.248Z,98222.73
2022-08-19T00:33:41.800Z,98219.96
2022-08-19T00:36:30.103Z,98215.95
2022-08-19T00:39:19.425Z,98217.91
2022-08-19T00:42:07.528Z,98212.21
2022-08-19T00:44:55.009Z,98225.69
2022-08-19T00:47:43.178Z,98224.58
2022-08-19T00:50:31.097Z,98224.63
2022-08-19T00:53:21.034Z,98222.88
2022-08-19T00:56:09.896Z,98222.27
2022-08-19T00:58:59.616Z,98215.12
2022-08-19T01:01:48.525Z,98216.99
2022-08-19T01:04:36.329Z,98209.00
2022-08-19T01:07:23.647Z,98213.27
2022-08-19T01:10:14.409Z,98205.53
2022-08-19T01:13:02.457Z,98207.38
2022-08-19T01:15:53.433Z,98210.84
2022-08-19T01:18:43.545Z,98205.88
2022-08-19T01:21:46.015Z,98208.70
2022-08-19T01:24:33.640Z,98208.70
2022-08-19T01:27:22.343Z,98212.31
2022-08-19T01:30:11.192Z,98203.08
2022-08-19T01:33:00.648Z,98208.91
2022-08-19T01:35:50.664Z,98203.32
2022-08-19T01:38:44.423Z,98209.75
2022-08-19T01:41:28.832Z,98209.55
2022-08-19T01:44:19.344Z,98197.76
2022-08-19T01:47:07.744Z,98198.02
2022-08-19T01:49:55.217Z,98202.02
2022-08-19T01:52:45.186Z,98199.81
2022-08-19T01:55:32.841Z,98205.47
2022-08-19T01:58:26.208Z,98200.66
2022-08-19T02:01:13.752Z,98197.07
2022-08-19T02:04:01.927Z,98193.45
2022-08-19T02:06:49.336Z,98189.07
2022-08-19T02:09:37.386Z,98181.68
2022-08-19T02:12:24.840Z,98184.88
2022-08-19T02:15:12.635Z,98187.48
2022-08-19T02:18:00.368Z,98183.71
2022-08-19T02:20:50.953Z,98181.31
2022-08-19T02:23:38.324Z,98181.11
2022-08-19T02:26:27.703Z,98183.92
2022-08-19T02:29:14.955Z,98181.32
2022-08-19T02:32:02.105Z,98183.91
2022-08-19T02:34:50.305Z,98187.13
2022-08-19T02:37:55.904Z,98174.30
2022-08-19T02:40:45.056Z,98181.91
2022-08-19T02:43:35.952Z,98174.48
2022-08-19T02:46:28.030Z,98174.48
2022-08-19T02:49:17.033Z,98173.27
2022-08-19T02:52:05.479Z,98166.25
2022-08-19T02:54:53.008Z,98160.86
2022-08-19T02:57:40.551Z,98164.66
2022-08-19T03:00:28.672Z,98160.23
2022-08-19T03:03:16.536Z,98167.69
2022-08-19T03:06:13.895Z,98169.48
2022-08-19T03:09:02.328Z,98167.30
2022-08-19T03:11:52.630Z,98172.53
2022-08-19T03:14:39.760Z,98168.52
2022-08-19T03:17:27.368Z,98175.11
2022-08-19T03:20:14.744Z,98175.53
2022-08-19T03:23:01.939Z,98175.12
2022-08-19T03:25:58.169Z,98180.73
2022-08-19T03:28:40.408Z,98188.17
2022-08-19T03:31:43.770Z,98190.56
2022-08-19T03:34:23.527Z,98184.14
2022-08-19T03:37:14.456Z,98181.94
2022-08-19T03:40:03.430Z,98178.74
2022-08-19T03:42:51.088Z,98181.73
2022-08-19T03:45:38.616Z,98185.34
2022-08-19T03:48:26.682Z,98190.93
2022-08-19T03:54:08.847Z,98196.50
2022-08-19T03:56:57.585Z,98201.09
2022-08-19T03:59:45.127Z,98202.69
2022-08-19T04:02:32.689Z,98206.29
2022-08-19T04:05:20.065Z,98213.11
2022-08-19T04:08:13.367Z,98207.70
2022-08-19T04:10:57.896Z,98209.09
2022-08-19T04:13:45.887Z,98213.11
2022-08-19T04:16:35.278Z,98211.11
2022-08-19T04:19:24.081Z,98221.18
2022-08-19T04:22:12.711Z,98230.83
2022-08-19T04:25:00.225Z,98243.88
2022-08-19T04:27:47.945Z,98246.33
2022-08-19T04:30:40.311Z,98254.15
2022-08-19T04:33:29.671Z,98252.97
2022-08-19T04:36:22.559Z,98255.77
2022-08-19T04:39:12.753Z,98254.34
2022-08-19T04:42:17.344Z,98251.36
2022-08-19T04:45:11.395Z,98242.70
2022-08-19T04:48:26.508Z,98235.88
2022-08-19T04:50:49.745Z,98230.06
2022-08-19T04:53:38.799Z,98232.24
2022-08-19T04:56:27.480Z,98228.25
2022-08-19T04:59:15.816Z,98236.47
2022-08-19T05:02:03.145Z,98229.02
2022-08-19T05:04:50.824Z,98231.83
2022-08-19T05:07:39.361Z,98235.22
2022-08-19T05:10:27.119Z,98230.16
2022-08-19T05:13:14.519Z,98221.30
2022-08-19T05:16:01.927Z,98216.66
2022-08-19T05:19:07.858Z,98205.39
2022-08-19T05:22:13.863Z,98206.75
2022-08-19T05:25:12.633Z,98208.33
2022-08-19T05:27:50.448Z,98210.13
2022-08-19T05:30:47.335Z,98213.48
2022-08-19T05:33:27.400Z,98217.47
2022-08-19T05:36:15.163Z,98227.66
2022-08-19T05:39:03.264Z,98223.73
2022-08-19T05:41:54.064Z,98228.92
2022-08-19T05:44:45.272Z,98222.23
2022-08-19T05:47:33.257Z,98222.38
2022-08-19T05:50:20.895Z,98231.55
2022-08-19T05:53:09.841Z,98226.52
2022-08-19T05:55:56.912Z,98219.61
2022-08-19T05:58:47.270Z,98220.97
2022-08-19T06:01:34.600Z,98215.23
2022-08-19T06:04:22.977Z,98213.10
2022-08-19T06:07:12.289Z,98222.03
2022-08-19T06:10:01.430Z,98234.05
2022-08-19T06:12:49.291Z,98229.83
2022-08-19T06:15:36.712Z,98240.06
2022-08-19T06:18:24.418Z,98239.11
2022-08-19T06:21:12.080Z,98234.70
2022-08-19T06:23:59.842Z,98236.72
2022-08-19T06:26:49.822Z,98244.75
2022-08-19T06:29:37.448Z,98246.16
2022-08-19T06:32:24.824Z,98248.68
2022-08-19T06:35:12.401Z,98255.80
2022-08-19T06:38:00.385Z,98249.38
2022-08-19T06:40:47.796Z,98252.66
2022-08-19T06:43:35.243Z,98256.13
2022-08-19T06:46:24.807Z,98248.75
2022-08-19T06:49:14.512Z,98249.57
2022-08-19T06:52:02.385Z,98248.94
2022-08-19T06:54:55.906Z,98247.31
2022-08-19T06:57:38.552Z,98253.55
2022-08-19T07:00:26.088Z,98252.09
2022-08-19T07:03:14.052Z,98250.55
2022-08-19T07:06:21.269Z,98251.47
2022-08-19T07:09:00.288Z,98258.23
2022-08-19T07:11:50.965Z,98254.23
2022-08-19T07:14:39.842Z,98261.48
2022-08-19T07:17:27.912Z,98262.41
2022-08-19T07:20:15.539Z,98260.95
2022-08-19T07:23:07.221Z,98256.34
2022-08-19T07:25:53.692Z,98260.27
2022-08-19T07:28:51.344Z,98258.30
2022-08-19T07:31:31.172Z,98243.45
2022-08-19T07:34:20.160Z,98240.80
2022-08-19T07:37:08.873Z,98238.48
2022-08-19T07:39:56.730Z,98228.85
2022-08-19T07:42:45.232Z,98235.94
2022-08-19T07:45:33.465Z,98238.82
2022-08-19T07:48:23.011Z,98235.36
2022-08-19T07:51:11.937Z,98246.94
2022-08-19T07:54:01.365Z,98253.36
2022-08-19T07:56:48.609Z,98264.88
2022-08-19T07:59:38.232Z,98259.52
2022-08-19T08:02:25.728Z,98263.41
2022-08-19T08:05:33.966Z,98260.58
2022-08-19T08:08:27.594Z,98259.91
2022-08-19T08:11:15.770Z,98263.19
2022-08-19T08:14:04.522Z,98273.68
2022-08-19T08:16:53.400Z,98280.15
2022-08-19T08:19:43.416Z,98283.34
2022-08-19T08:22:48.899Z,98275.29
2022-08-19T08:25:38.944Z,98276.25
2022-08-19T08:28:29.805Z,98280.33
2022-08-19T08:31:16.680Z,98272.19
2022-08-19T08:34:04.192Z,98283.71
2022-08-19T08:36:52.944Z,98287.05
2022-08-19T08:39:40.415Z,98287.05
2022-08-19T08:42:33.360Z,98289.84
2022-08-19T08:45:20.858Z,98291.05
2022-08-19T08:48:22.386Z,98275.09
2022-08-19T08:51:02.200Z,98277.31
2022-08-19T08:53:50.911Z,98283.99
2022-08-19T08:56:44.160Z,98274.05
2022-08-19T08:59:34.281Z,98281.78
2022-08-19T09:02:21.554Z,98287.77
2022-08-19T09:05:11.024Z,98296.45
2022-08-19T09:08:03.728Z,98296.45
2022-08-19T09:10:56.063Z,98303.63
2022-08-19T09:14:06.004Z,98289.99
2022-08-19T09:16:53.521Z,98301.09
2022-08-19T09:19:58.497Z,98288.97
2022-08-19T09:22:46.408Z,98282.55
2022-08-19T09:25:35.603Z,98293.45
2022-08-19T09:28:26.949Z,98285.97
2022-08-19T09:31:20.528Z,98290.72
2022-08-19T09:34:07.736Z,98290.84
2022-08-19T09:36:58.665Z,98291.23
2022-08-19T09:39:45.884Z,98285.21
2022-08-19T09:42:35.280Z,98283.16
2022-08-19T09:45:24.112Z,98287.12
2022-08-19T09:48:11.687Z,98294.08
2022-08-19T09:51:08.703Z,98284.59
2022-08-19T09:54:00.952Z,98286.33
2022-08-19T09:56:50.240Z,98288.81
2022-08-19T09:59:37.560Z,98288.73
2022-08-19T10:02:25.976Z,98286.13
2022-08-19T10:05:32.471Z,98281.56
2022-08-19T10:08:22.776Z,98287.77
2022-08-19T10:11:28.575Z,98283.42
2022-08-19T10:14:01.648Z,98289.84
2022-08-19T10:16:50.391Z,98291.09
2022-08-19T10:19:37.727Z,98281.13
2022-08-19T10:22:26.202Z,98276.17
2022-08-19T10:25:15.111Z,98285.75
2022-08-19T10:28:02.967Z,98274.69
2022-08-19T10:30:50.408Z,98279.61
2022-08-19T10:33:53.350Z,98270.74
2022-08-19T10:36:33.977Z,98268.98
2022-08-19T10:39:22.844Z,98269.04
2022-08-19T10:42:12.969Z,98268.17
2022-08-19T10:45:01.153Z,98274.19
2022-08-19T10:47:48.826Z,98266.09
2022-08-19T10:50:53.948Z,98262.81
2022-08-19T10:53:41.568Z,98254.39
2022-08-19T10:56:47.711Z,98254.59
2022-08-19T10:59:36.568Z,98252.16
2022-08-19T11:02:25.032Z,98255.00
2022-08-19T11:05:13.696Z,98252.31
2022-08-19T11:08:01.615Z,98251.59
2022-08-19T11:10:51.199Z,98251.59
2022-08-19T11:13:42.055Z,98249.16
2022-08-19T11:16:30.887Z,98240.88
2022-08-19T11:19:20.304Z,98237.48
2022-08-19T11:22:10.504Z,98236.53
2022-08-19T11:24:59.879Z,98235.59
2022-08-19T11:27:47.935Z,98230.52
2022-08-19T11:30:35.544Z,98233.68
2022-08-19T11:33:23.313Z,98229.24
2022-08-19T11:36:11.159Z,98235.27
2022-08-19T11:39:01.216Z,98230.01
2022-08-19T11:41:48.849Z,98228.42
2022-08-19T11:44:36.963Z,98223.02
2022-08-19T11:47:25.231Z,98218.91
2022-08-19T11:50:12.288Z,98218.89
2022-08-19T11:52:59.936Z,98216.48
2022-08-19T11:55:47.112Z,98213.13
2022-08-19T11:58:35.824Z,98211.23
2022-08-19T12:01:25.232Z,98214.88
2022-08-19T12:04:12.864Z,98215.20
2022-08-19T12:07:00.121Z,98218.98
2022-08-19T12:09:48.664Z,98214.53
2022-08-19T12:12:38.272Z,98210.31
2022-08-19T12:15:25.863Z,98212.70
2022-08-19T12:18:14.943Z,98208.59
2022-08-19T12:21:02.506Z,98212.02
2022-08-19T12:23:55.507Z,98210.54
2022-08-19T12:26:53.346Z,98206.80
2022-08-19T12:29:30.858Z,98203.61
2022-08-19T12:32:18.544Z,98193.01
2022-08-19T12:35:06.405Z,98190.34
2022-08-19T12:37:57.343Z,98177.48
2022-08-19T12:40:45.632Z,98175.18
2022-08-19T12:43:33.095Z,98172.72
2022-08-19T12:46:22.263Z,98167.52
2022-08-19T12:49:16.791Z,98169.09
2022-08-19T12:52:00.081Z,98169.73
2022-08-19T12:54:48.015Z,98170.76
2022-08-19T12:57:37.937Z,98168.41
2022-08-19T13:00:25.306Z,98178.39
2022-08-19T13:03:12.642Z,98175.56
2022-08-19T13:05:59.895Z,98175.94
2022-08-19T13:08:47.368Z,98180.19
2022-08-19T13:11:34.920Z,98182.73
2022-08-19T13:14:22.248Z,98185.95
2022-08-19T13:17:09.892Z,98180.84
2022-08-19T13:19:57.904Z,98175.70
2022-08-19T13:22:46.183Z,98174.78
2022-08-19T13:25:34.290Z,98177.14
2022-08-19T13:28:22.233Z,98173.33
2022-08-19T13:31:28.985Z,98182.13
2022-08-19T13:34:17.536Z,98174.47
2022-08-19T13:37:06.431Z,98167.09
2022-08-19T13:39:54.157Z,98164.62
2022-08-19T13:42:42.096Z,98171.62
2022-08-19T13:45:33.361Z,98177.25
2022-08-19T13:48:20.720Z,98173.97
2022-08-19T13:51:10.049Z,98174.52
2022-08-19T13:53:57.745Z,98174.08
2022-08-19T13:56:46.671Z,98175.83
2022-08-19T13:59:34.304Z,98176.28
2022-08-19T14:02:21.888Z,98171.71
2022-08-19T14:05:11.064Z,98177.10
2022-08-19T14:07:59.464Z,98177.63
2022-08-19T14:10:47.064Z,98174.59
2022-08-19T14:13:35.128Z,98175.88
2022-08-19T14:16:23.018Z,98181.86
2022-08-19T14:19:10.320Z,98174.67
2022-08-19T14:21:58.756Z,98175.17
2022-08-19T14:24:47.914Z,98176.62
2022-08-19T14:27:36.626Z,98172.20
2022-08-19T14:30:32.728Z,98177.87
2022-08-19T14:33:20.048Z,98168.75
2022-08-19T14:36:08.144Z,98167.44
2022-08-19T14:38:55.799Z,98163.56
2022-08-19T14:41:43.871Z,98166.45
2022-08-19T14:44:32.889Z,98164.14
2022-08-19T14:47:20.744Z,98160.83
2022-08-19T14:50:17.856Z,98155.23
2022-08-19T14:53:11.981Z,98149.96
2022-08-19T14:55:56.034Z,98159.86
2022-08-19T14:58:44.955Z,98155.98
2022-08-19T15:01:32.883Z,98157.81
2022-08-19T15:04:20.114Z,98157.20
2022-08-19T15:07:08.413Z,98161.47
2022-08-19T15:09:56.039Z,98159.76
2022-08-19T15:12:45.150Z,98160.68
2022-08-19T15:15:33.176Z,98161.98
2022-08-19T15:18:21.517Z,98161.45
2022-08-19T15:21:09.080Z,98158.56
2022-08-19T15:23:58.448Z,98169.00
2022-08-19T15:26:45.624Z,98157.05
2022-08-19T15:29:33.280Z,98162.55
2022-08-19T15:32:20.937Z,98162.42
2022-08-19T15:35:09.601Z,98158.84
2022-08-19T15:37:57.726Z,98162.10
2022-08-19T15:40:45.887Z,98162.52
2022-08-19T15:43:33.074Z,98161.31
2022-08-19T15:46:23.810Z,98157.34
2022-08-19T15:49:12.576Z,98152.69
2022-08-19T15:52:01.744Z,98154.35
2022-08-19T15:54:48.449Z,98147.09
2022-08-19T15:57:53.824Z,98138.44
2022-08-19T16:00:59.513Z,98146.53
2022-08-19T16:04:11.021Z,98135.86
2022-08-19T16:06:58.939Z,98138.39
2022-08-19T16:09:46.042Z,98138.62
2022-08-19T16:12:33.904Z,98142.89
2022-08-19T16:15:21.569Z,98139.38
2022-08-19T16:18:09.320Z,98140.66
2022-08-19T16:20:56.944Z,98134.20
2022-08-19T16:23:47.133Z,98128.34
2022-08-19T16:26:35.697Z,98125.50
2022-08-19T16:29:34.892Z,98121.74
2022-08-19T16:32:14.177Z,98122.83
2022-08-19T16:35:06.647Z,98108.09
2022-08-19T16:37:54.123Z,98105.66
2022-08-19T16:40:45.014Z,98096.90
2022-08-19T16:43:31.672Z,98092.79
2022-08-19T16:46:19.632Z,98094.52
2022-08-19T16:49:10.736Z,98097.39
2022-08-19T16:51:57.680Z,98111.22
2022-08-19T16:54:45.463Z,98113.00
2022-08-19T16:57:33.417Z,98126.66
2022-08-19T17:00:21.432Z,98131.69
2022-08-19T17:03:14.624Z,98135.32
2022-08-19T17:06:03.973Z,98141.28
2022-08-19T17:08:53.305Z,98138.73
2022-08-19T17:11:40.687Z,98140.22
2022-08-19T17:14:28.137Z,98149.95
2022-08-19T17:17:16.153Z,98153.26
2022-08-19T17:20:06.056Z,98168.48
2022-08-19T17:22:53.447Z,98171.36
2022-08-19T17:25:40.890Z,98181.36
2022-08-19T17:28:30.513Z,98186.34
2022-08-19T17:31:19.187Z,98184.19
2022-08-19T17:34:06.629Z,98190.15
2022-08-19T17:36:57.234Z,98201.55
2022-08-19T17:39:44.749Z,98195.55
2022-08-19T17:42:32.611Z,98190.41
2022-08-19T17:45:20.801Z,98193.00
2022-08-19T17:48:08.857Z,98190.28
2022-08-19T17:50:56.233Z,98193.59
2022-08-19T17:53:45.656Z,98189.11
2022-08-19T17:56:33.563Z,98175.47
2022-08-19T17:59:20.968Z,98163.65
2022-08-19T18:02:11.287Z,98159.70
2022-08-19T18:04:59.433Z,98168.56
2022-08-19T18:07:49.264Z,98162.23
2022-08-19T18:10:38.161Z,98153.41
2022-08-19T18:13:25.817Z,98145.29
2022-08-19T18:16:13.601Z,98159.77
2022-08-19T18:19:01.293Z,98173.91
2022-08-19T18:21:49.152Z,98184.28
2022-08-19T18:24:41.838Z,98187.78
2022-08-19T18:27:29.427Z,98185.16
2022-08-19T18:30:17.762Z,98191.64
2022-08-19T18:33:09.520Z,98193.27
2022-08-19T18:35:56.832Z,98190.62
2022-08-19T18:39:06.810Z,98194.81
2022-08-19T18:42:09.904Z,98197.55
2022-08-19T18:45:15.560Z,98212.31
2022-08-19T18:48:27.691Z,98210.89
2022-08-19T18:51:11.264Z,98209.39
2022-08-19T18:53:59.952Z,98203.20
2022-08-19T18:56:49.082Z,98197.59
2022-08-19T18:59:37.754Z,98202.75
2022-08-19T19:02:28.297Z,98212.36
2022-08-19T19:05:16.840Z,98214.87
2022-08-19T19:08:04.776Z,98222.69
2022-08-19T19:10:55.367Z,98222.55
2022-08-19T19:13:48.530Z,98217.55
2022-08-19T19:16:36.288Z,98207.34
2022-08-19T19:19:24.747Z,98201.87
2022-08-19T19:22:20.513Z,98190.61
2022-08-19T19:25:12.160Z,98203.55
2022-08-19T19:28:00.018Z,98213.77
2022-08-19T19:30:47.248Z,98226.24
2022-08-19T19:33:35.544Z,98228.45
2022-08-19T19:36:25.466Z,98221.05
2022-08-19T19:39:12.852Z,98228.80
2022-08-19T19:42:03.197Z,98232.30
2022-08-19T19:44:53.969Z,98241.24
2022-08-19T19:47:44.216Z,98242.09
2022-08-19T19:50:31.632Z,98243.10
2022-08-19T19:53:19.490Z,98241.69
2022-08-19T19:56:07.640Z,98245.10
2022-08-19T19:58:55.659Z,98240.47
2022-08-19T20:01:44.918Z,98241.13
2022-08-19T20:04:33.073Z,98246.97
2022-08-19T20:07:23.177Z,98258.11
2022-08-19T20:10:10.729Z,98253.13
2022-08-19T20:12:58.255Z,98253.17
2022-08-19T20:15:45.993Z,98251.34
2022-08-19T20:18:34.209Z,98246.32
2022-08-19T20:21:22.641Z,98246.89
2022-08-19T20:24:14.057Z,98237.25
2022-08-19T20:27:05.090Z,98241.24
2022-08-19T20:29:52.824Z,98236.03
2022-08-19T20:32:42.912Z,98230.65
2022-08-19T20:35:33.161Z,98227.25
2022-08-19T20:38:22.961Z,98221.27
2022-08-19T20:41:11.608Z,98223.52
2022-08-19T20:44:04.136Z,98233.80
2022-08-19T20:46:55.622Z,98231.80
2022-08-19T20:49:41.088Z,98231.61
2022-08-19T20:52:28.961Z,98222.17
2022-08-19T20:55:16.296Z,98223.81
2022-08-19T20:58:05.912Z,98228.27
2022-08-19T21:00:57.209Z,98222.66
2022-08-19T21:03:44.856Z,98220.06
2022-08-19T21:06:32.625Z,98220.08
2022-08-19T21:09:20.010Z,98223.50
2022-08-19T21:12:08.770Z,98226.73
2022-08-19T21:14:56.280Z,98223.92
2022-08-19T21:17:43.841Z,98225.75
2022-08-19T21:20:31.425Z,98227.77
2022-08-19T21:23:22.498Z,98226.78
2022-08-19T21:26:10.017Z,98223.97
2022-08-19T21:28:57.920Z,98225.79
2022-08-19T21:31:45.361Z,98225.56
2022-08-19T21:34:33.009Z,98222.55
2022-08-19T21:37:25.205Z,98223.13
2022-08-19T21:40:10.787Z,98223.92
2022-08-19T21:42:58.235Z,98231.56
2022-08-19T21:45:47.636Z,98252.28
2022-08-19T21:48:35.377Z,98265.35
2022-08-19T21:51:22.656Z,98282.83
2022-08-19T21:54:14.186Z,98276.63
2022-08-19T21:57:00.060Z,98278.06
2022-08-19T21:59:48.008Z,98278.06
2022-08-19T22:02:35.555Z,98267.00
2022-08-19T22:05:24.658Z,98271.41
2022-08-19T22:08:14.528Z,98275.02
2022-08-19T22:11:04.409Z,98287.27
2022-08-19T22:13:53.684Z,98294.70
2022-08-19T22:16:41.161Z,98293.30
2022-08-19T22:19:29.386Z,98297.91
2022-08-19T22:22:24.941Z,98298.92
2022-08-19T22:25:31.134Z,98295.67
2022-08-19T22:28:08.273Z,98292.45
2022-08-19T22:30:57.783Z,98300.06
2022-08-19T22:33:45.399Z,98291.63
2022-08-19T22:36:33.360Z,98284.00
2022-08-19T22:39:21.249Z,98281.17
2022-08-19T22:42:08.757Z,98279.10
2022-08-19T22:44:59.065Z,98288.27
2022-08-19T22:47:46.416Z,98280.44
2022-08-19T22:50:35.040Z,98274.23
2022-08-19T22:53:22.202Z,98268.64
2022-08-19T22:56:15.170Z,98263.42
2022-08-19T22:59:00.976Z,98265.42
2022-08-19T23:01:48.610Z,98263.20
2022-08-19T23:04:36.892Z,98267.20
2022-08-19T23:07:24.691Z,98268.16
2022-08-19T23:10:12.410Z,98262.63
2022-08-19T23:13:00.562Z,98256.57
2022-08-19T23:15:48.629Z,98248.91
2022-08-19T23:18:35.953Z,98243.67
2022-08-19T23:21:26.680Z,98246.67
2022-08-19T23:24:14.296Z,98253.91
2022-08-19T23:27:19.595Z,98250.36
2022-08-19T23:30:25.576Z,98247.98
2022-08-19T23:33:36.233Z,98250.81
2022-08-19T23:36:20.072Z,98261.91
2022-08-19T23:39:07.649Z,98262.28
2022-08-19T23:41:55.801Z,98261.05
2022-08-19T23:44:51.884Z,98267.64
2022-08-19T23:47:34.721Z,98268.23
2022-08-19T23:50:22.584Z,98270.44
2022-08-19T23:53:13.295Z,98274.90
2022-08-19T23:55:59.664Z,98268.48
2022-08-19T23:58:49.241Z,98275.91
